Aviation Digital Data Service (ADDS)

Output produced by METARs form (0155 UTC 25 February 2018)
found at http://aviationweather.gov/adds/metars/
 
KCLL 242341Z 2500/2524 18008KT P6SM BKN030 OVC045 
     FM250200 35012KT P6SM -SHRA BKN025 OVC040 
     FM250500 01006KT P6SM BKN050 BKN200 
     FM251700 08008KT P6SM VCSH BKN060